createdAt,value
2022-10-19T00:00:00.323Z,80
2022-10-19T00:05:00.142Z,80
2022-10-19T00:10:00.268Z,80
2022-10-19T00:15:00.229Z,80
2022-10-19T00:20:00.244Z,80
2022-10-19T00:25:00.201Z,80
2022-10-19T00:30:00.309Z,80
2022-10-19T00:35:00.417Z,80
2022-10-19T00:40:00.320Z,80
2022-10-19T00:45:00.187Z,80
2022-10-19T00:50:00.173Z,80
2022-10-19T00:55:00.275Z,80
2022-10-19T01:00:00.270Z,80
2022-10-19T01:05:00.229Z,80
2022-10-19T01:10:00.252Z,80
2022-10-19T01:15:00.260Z,80
2022-10-19T01:20:00.257Z,80
2022-10-19T01:25:00.286Z,80
2022-10-19T01:30:00.253Z,80
2022-10-19T01:35:00.180Z,80
2022-10-19T01:40:00.227Z,80
2022-10-19T01:45:00.213Z,80
2022-10-19T01:50:00.500Z,80
2022-10-19T01:55:00.220Z,80
2022-10-19T02:00:00.275Z,80
2022-10-19T02:05:00.216Z,81
2022-10-19T02:10:00.393Z,81
2022-10-19T02:15:00.243Z,81
2022-10-19T02:20:00.229Z,81
2022-10-19T02:25:00.223Z,81
2022-10-19T02:30:00.279Z,81
2022-10-19T02:35:00.220Z,81
2022-10-19T02:40:00.193Z,81
2022-10-19T02:45:00.236Z,81
2022-10-19T02:50:00.276Z,81
2022-10-19T02:55:00.221Z,81
2022-10-19T03:00:00.253Z,81
2022-10-19T03:05:00.257Z,81
2022-10-19T03:10:00.233Z,81
2022-10-19T03:15:00.240Z,81
2022-10-19T03:20:00.314Z,81
2022-10-19T03:25:00.302Z,81
2022-10-19T03:30:00.329Z,81
2022-10-19T03:35:00.243Z,81
2022-10-19T03:40:00.282Z,81
2022-10-19T03:45:00.229Z,81
2022-10-19T03:50:00.267Z,81
2022-10-19T03:55:00.206Z,81
2022-10-19T04:00:00.279Z,81
2022-10-19T04:05:00.247Z,81
2022-10-19T04:10:00.269Z,81
2022-10-19T04:15:00.243Z,81
2022-10-19T04:20:00.270Z,81
2022-10-19T04:25:00.244Z,81
2022-10-19T04:30:00.287Z,81
2022-10-19T04:35:00.282Z,81
2022-10-19T04:40:00.292Z,81
2022-10-19T04:45:00.253Z,81
2022-10-19T04:50:00.297Z,82
2022-10-19T04:55:00.251Z,82
2022-10-19T05:00:00.295Z,82
2022-10-19T05:05:00.290Z,82
2022-10-19T05:10:00.284Z,82
2022-10-19T05:15:00.212Z,82
2022-10-19T05:20:00.280Z,83
2022-10-19T05:25:00.198Z,83
2022-10-19T05:30:00.328Z,83
2022-10-19T05:35:00.278Z,83
2022-10-19T05:40:00.300Z,83
2022-10-19T05:45:00.253Z,83
2022-10-19T05:50:00.271Z,83
2022-10-19T05:55:00.326Z,83
2022-10-19T06:00:00.312Z,83
2022-10-19T06:05:00.247Z,83
2022-10-19T06:10:00.299Z,83
2022-10-19T06:15:00.252Z,83
2022-10-19T06:20:00.272Z,84
2022-10-19T06:25:00.301Z,84
2022-10-19T06:30:00.285Z,84
2022-10-19T06:35:00.242Z,84
2022-10-19T06:40:03.560Z,84
2022-10-19T06:45:00.280Z,84
2022-10-19T06:50:00.239Z,84
2022-10-19T06:55:00.227Z,85
2022-10-19T07:00:00.319Z,85
2022-10-19T07:05:04.570Z,85
2022-10-19T07:10:00.265Z,85
2022-10-19T07:15:00.247Z,85
2022-10-19T07:20:00.323Z,85
2022-10-19T07:25:00.271Z,85
2022-10-19T07:30:00.332Z,85
2022-10-19T07:35:00.250Z,85
2022-10-19T07:40:00.273Z,85
2022-10-19T07:45:00.242Z,85
2022-10-19T07:50:00.310Z,85
2022-10-19T07:55:00.259Z,85
2022-10-19T08:00:00.318Z,85
2022-10-19T08:05:03.205Z,86
2022-10-19T08:10:00.303Z,86
2022-10-19T08:15:00.264Z,86
2022-10-19T08:20:00.328Z,86
2022-10-19T08:25:00.243Z,86
2022-10-19T08:30:00.259Z,86
2022-10-19T08:35:00.260Z,86
2022-10-19T08:40:00.272Z,86
2022-10-19T08:45:00.271Z,86
2022-10-19T08:50:00.294Z,86
2022-10-19T08:55:00.315Z,86
2022-10-19T09:00:00.333Z,86
2022-10-19T09:05:00.247Z,86
2022-10-19T09:10:00.234Z,86
2022-10-19T09:15:00.315Z,86
2022-10-19T09:20:00.272Z,86
2022-10-19T09:25:00.276Z,86
2022-10-19T09:30:00.326Z,86
2022-10-19T09:35:00.249Z,87
2022-10-19T09:40:00.301Z,87
2022-10-19T09:45:00.262Z,87
2022-10-19T09:50:00.230Z,86
2022-10-19T09:55:00.210Z,86
2022-10-19T10:00:00.355Z,85
2022-10-19T10:05:00.259Z,85
2022-10-19T10:10:00.314Z,85
2022-10-19T10:15:00.279Z,85
2022-10-19T10:20:00.325Z,84
2022-10-19T10:25:00.273Z,84
2022-10-19T10:30:00.437Z,82
2022-10-19T10:35:01.485Z,80
2022-10-19T10:40:03.550Z,80
2022-10-19T10:45:00.305Z,78
2022-10-19T10:50:00.235Z,78
2022-10-19T10:55:00.261Z,77
2022-10-19T11:00:00.316Z,77
2022-10-19T11:05:00.319Z,77
2022-10-19T11:10:00.266Z,77
2022-10-19T11:15:00.272Z,77
2022-10-19T11:20:00.292Z,77
2022-10-19T11:25:00.277Z,76
2022-10-19T11:30:00.324Z,76
2022-10-19T11:35:00.239Z,75
2022-10-19T11:40:00.240Z,75
2022-10-19T11:45:00.200Z,75
2022-10-19T11:50:00.271Z,74
2022-10-19T11:55:00.257Z,73
2022-10-19T12:00:08.577Z,73
2022-10-19T12:05:00.329Z,73
2022-10-19T12:10:00.299Z,72
2022-10-19T12:15:00.242Z,72
2022-10-19T12:20:00.281Z,72
2022-10-19T12:25:00.209Z,72
2022-10-19T12:30:00.310Z,71
2022-10-19T12:35:00.335Z,71
2022-10-19T12:40:00.286Z,71
2022-10-19T12:45:00.244Z,71
2022-10-19T12:50:00.314Z,71
2022-10-19T12:55:00.297Z,71
2022-10-19T13:00:00.282Z,70
2022-10-19T13:05:00.237Z,70
2022-10-19T13:10:00.465Z,70
2022-10-19T13:15:00.314Z,70
2022-10-19T13:20:00.329Z,70
2022-10-19T13:25:03.594Z,69
2022-10-19T13:30:00.335Z,69
2022-10-19T13:35:00.285Z,68
2022-10-19T13:40:00.290Z,69
2022-10-19T13:45:00.250Z,69
2022-10-19T13:50:00.287Z,70
2022-10-19T13:55:00.274Z,67
2022-10-19T14:00:00.505Z,68
2022-10-19T14:05:00.260Z,68
2022-10-19T14:10:00.298Z,68
2022-10-19T14:15:00.250Z,68
2022-10-19T14:20:00.352Z,68
2022-10-19T14:25:00.258Z,68
2022-10-19T14:30:00.332Z,68
2022-10-19T14:35:00.319Z,68
2022-10-19T14:40:00.306Z,68
2022-10-19T14:45:00.246Z,68
2022-10-19T14:50:00.285Z,69
2022-10-19T14:55:00.205Z,69
2022-10-19T15:00:00.303Z,69
2022-10-19T15:05:00.240Z,68
2022-10-19T15:10:00.280Z,68
2022-10-19T15:15:00.232Z,68
2022-10-19T15:20:00.547Z,68
2022-10-19T15:25:00.243Z,69
2022-10-19T15:30:00.604Z,69
2022-10-19T15:35:00.261Z,68
2022-10-19T15:40:00.384Z,69
2022-10-19T15:45:00.390Z,69
2022-10-19T15:50:00.295Z,69
2022-10-19T15:55:00.256Z,69
2022-10-19T16:00:00.320Z,69
2022-10-19T16:05:00.339Z,70
2022-10-19T16:10:00.293Z,70
2022-10-19T16:15:00.270Z,70
2022-10-19T16:20:00.286Z,70
2022-10-19T16:25:00.298Z,71
2022-10-19T16:30:00.316Z,71
2022-10-19T16:35:00.253Z,71
2022-10-19T16:40:00.290Z,71
2022-10-19T16:45:00.316Z,71
2022-10-19T16:50:00.302Z,71
2022-10-19T16:55:00.210Z,72
2022-10-19T17:00:00.336Z,72
2022-10-19T17:05:00.258Z,72
2022-10-19T17:10:00.437Z,72
2022-10-19T17:15:29.929Z,72
2022-10-19T17:20:00.381Z,72
2022-10-19T17:25:00.698Z,72
2022-10-19T17:30:00.357Z,72
2022-10-19T17:35:00.353Z,73
2022-10-19T17:40:00.297Z,73
2022-10-19T17:45:00.266Z,73
2022-10-19T17:50:00.279Z,73
2022-10-19T17:55:11.676Z,73
2022-10-19T18:00:00.330Z,74
2022-10-19T18:05:00.243Z,74
2022-10-19T18:10:00.365Z,74
2022-10-19T18:15:00.389Z,74
2022-10-19T18:20:00.516Z,74
2022-10-19T18:25:00.472Z,74
2022-10-19T18:30:00.409Z,74
2022-10-19T18:35:00.355Z,75
2022-10-19T18:40:00.362Z,75
2022-10-19T18:45:00.277Z,75
2022-10-19T18:50:00.302Z,75
2022-10-19T18:55:00.254Z,75
2022-10-19T19:00:00.291Z,75
2022-10-19T19:05:00.285Z,75
2022-10-19T19:10:00.283Z,76
2022-10-19T19:15:00.231Z,76
2022-10-19T19:20:00.409Z,76
2022-10-19T19:25:00.447Z,76
2022-10-19T19:30:00.499Z,76
2022-10-19T19:35:00.441Z,76
2022-10-19T19:40:00.359Z,75
2022-10-19T19:45:00.332Z,75
2022-10-19T19:50:00.297Z,75
2022-10-19T20:00:00.323Z,76
2022-10-19T20:05:00.274Z,76
2022-10-19T20:10:00.283Z,76
2022-10-19T20:15:00.253Z,76
2022-10-19T20:20:00.236Z,77
2022-10-19T20:25:00.244Z,77
2022-10-19T20:30:00.385Z,77
2022-10-19T20:35:00.270Z,77
2022-10-19T20:40:01.573Z,77
2022-10-19T20:45:00.236Z,77
2022-10-19T20:50:00.461Z,77
2022-10-19T20:55:00.302Z,77
2022-10-19T21:00:00.244Z,77
2022-10-19T21:05:00.143Z,77
2022-10-19T21:10:00.275Z,77
2022-10-19T21:15:00.257Z,78
2022-10-19T21:20:00.287Z,78
2022-10-19T21:25:00.320Z,78
2022-10-19T21:30:00.222Z,79
2022-10-19T21:35:00.235Z,79
2022-10-19T21:40:00.220Z,79
2022-10-19T21:45:18.368Z,79
2022-10-19T21:50:00.277Z,79
2022-10-19T21:55:00.255Z,79
2022-10-19T22:00:00.338Z,79
2022-10-19T22:05:00.213Z,79
2022-10-19T22:10:00.302Z,79
2022-10-19T22:15:00.177Z,79
2022-10-19T22:20:00.215Z,79
2022-10-19T22:25:00.264Z,79
2022-10-19T22:30:00.235Z,79
2022-10-19T22:35:00.221Z,79
2022-10-19T22:40:00.282Z,79
2022-10-19T22:45:00.209Z,79
2022-10-19T22:50:00.256Z,79
2022-10-19T22:55:00.221Z,79
2022-10-19T23:00:00.241Z,79
2022-10-19T23:05:00.208Z,79
2022-10-19T23:10:00.241Z,80
2022-10-19T23:15:00.222Z,80
2022-10-19T23:20:00.274Z,80
2022-10-19T23:25:00.269Z,80
2022-10-19T23:30:00.279Z,80
2022-10-19T23:35:00.234Z,80
2022-10-19T23:40:00.211Z,80
2022-10-19T23:45:00.208Z,80
2022-10-19T23:50:00.302Z,80
2022-10-19T23:55:00.244Z,80
